M I D A S
Marine Information and Data Acquisition System
Tripno 1327 of the Zeeleeuw from 2007-08-30 07:01:54 to 2007-08-30 14:55:45
Back to CruiseResearch ActivitiesStationsMapUnderway DataData graphs

EquipmentUnitsComment
TimeDGPSUTC
LatitudeDGPSDM.mWGS84
LongitudeDGPSDM.mWGS84
HeadingGyrodeg 
SOGDGPSknotsSpeed over ground
COGDGPSdegCourse over ground
DepthEcho soundermeters200 kHz
Missing or incorrect values are displayed as -999
Navigation data collected by the RV Zeeleeuw from 2007-08-30 07:01:30 to 2007-08-30 15:06:31
Time Latitude Longitude Heading SOG COG Depth
2007-08-30 07:02:35 51°13.62 2°56.032 116.2 4.3 295 -999
2007-08-30 07:03:35 51°13.659 2°55.914 117.6 5.3 297 -999
2007-08-30 07:04:35 51°13.682 2°55.797 98.2 4.2 279 -999
2007-08-30 07:05:34 51°13.685 2°55.733 78.8 0.8 272 10.6
2007-08-30 07:06:31 51°13.698 2°55.741 25.2 1.8 16 11
2007-08-30 07:07:32 51°13.767 2°55.695 330.8 7.4 328 9.6
2007-08-30 07:08:32 51°13.899 2°55.586 336.3 9.6 334 9.8
2007-08-30 07:09:31 51°14.046 2°55.481 339 9.8 336 9.1
2007-08-30 07:10:32 51°14.187 2°55.359 328.5 9.8 325 -999
2007-08-30 07:11:32 51°14.309 2°55.178 316.3 10.2 314 9.3
2007-08-30 07:12:32 51°14.43 2°54.96 318.2 11.9 312 9.2
2007-08-30 07:13:30 51°14.578 2°54.768 337.5 11.9 330 8
2007-08-30 07:14:32 51°14.754 2°54.599 333.9 12.1 326 8
2007-08-30 07:15:31 51°14.927 2°54.454 342.5 11.8 336 7.4
2007-08-30 07:16:32 51°15.095 2°54.291 332.6 11.8 322 7.1
2007-08-30 07:17:32 51°15.264 2°54.127 339.4 12 331 7.7
2007-08-30 07:18:31 51°15.435 2°53.97 340.2 12 330 8.4
2007-08-30 07:19:32 51°15.613 2°53.814 341.8 12.1 332 9.1
2007-08-30 07:20:31 51°15.787 2°53.665 341.7 12.1 332 9.3
2007-08-30 07:21:31 51°15.966 2°53.515 341.1 12.2 331 9.9
2007-08-30 07:22:31 51°16.145 2°53.369 343.2 12.1 332 10.2
2007-08-30 07:23:31 51°16.321 2°53.216 341.2 12.1 332 10.3
2007-08-30 07:24:32 51°16.502 2°53.063 340.9 12.1 331 10.2
2007-08-30 07:25:32 51°16.68 2°52.918 341.2 12 333 9.6
2007-08-30 07:26:32 51°16.863 2°52.805 348.1 11.6 340 7.9
2007-08-30 07:27:32 51°17.042 2°52.685 346.3 11.8 340 8.7
2007-08-30 07:28:32 51°17.225 2°52.613 354.8 10 346 8.3
2007-08-30 07:29:32 51°17.329 2°52.547 346.9 4.8 334 8.8
2007-08-30 07:30:32 51°17.382 2°52.5 349.4 3.3 334 8.9
2007-08-30 07:31:30 51°17.431 2°52.477 3.9 3.3 350 9.1
2007-08-30 07:32:32 51°17.49 2°52.488 26.6 3.6 22 9.1
2007-08-30 07:33:31 51°17.542 2°52.537 41.8 3.7 42 8.9
2007-08-30 07:34:32 51°17.573 2°52.646 72.8 6.6 77 9
2007-08-30 07:35:32 51°17.618 2°52.891 69.7 10.8 67 8.7
2007-08-30 07:36:31 51°17.692 2°53.155 65.8 11.1 64 8.5
2007-08-30 07:37:32 51°17.774 2°53.427 68.1 11.2 66 8.4
2007-08-30 07:38:31 51°17.864 2°53.677 59.9 11.1 58 8.4
2007-08-30 07:39:31 51°17.955 2°53.933 60.8 11.1 57 8.4
2007-08-30 07:40:32 51°18.054 2°54.188 62.3 11.1 59 8.2
2007-08-30 07:41:32 51°18.154 2°54.435 58.4 11.1 55 8.4
2007-08-30 07:42:32 51°18.257 2°54.677 59.5 11 59 8.4
2007-08-30 07:43:31 51°18.352 2°54.922 58.4 11.1 55 8.5
2007-08-30 07:44:32 51°18.451 2°55.175 60.5 11 58 8.5
2007-08-30 07:45:31 51°18.549 2°55.412 58.1 10.8 56 8.7
2007-08-30 07:46:32 51°18.649 2°55.658 58.8 10.9 57 8.6
2007-08-30 07:47:31 51°18.746 2°55.894 59 10.7 58 8.6
2007-08-30 07:48:32 51°18.846 2°56.135 59 10.6 57 8.9
2007-08-30 07:49:32 51°18.945 2°56.369 58.9 10.6 57 8.4
2007-08-30 07:50:32 51°19.042 2°56.602 59.8 10.6 58 8.6
2007-08-30 07:51:31 51°19.134 2°56.832 59.6 10.4 57 8.5
2007-08-30 07:52:32 51°19.218 2°57.077 71.3 10.4 73 8.4
2007-08-30 07:53:32 51°19.273 2°57.34 67.6 10.3 65 8.3
2007-08-30 07:54:32 51°19.345 2°57.589 67.5 10.3 67 8.4
2007-08-30 07:55:32 51°19.415 2°57.84 65.7 10.2 63 8.2
2007-08-30 07:56:31 51°19.48 2°58.085 70.9 10.3 73 8.1
2007-08-30 07:57:32 51°19.537 2°58.344 71.1 10.1 71 8
2007-08-30 07:58:31 51°19.589 2°58.593 69.2 9.9 69 8
2007-08-30 07:59:31 51°19.643 2°58.844 72.1 10.1 70 7.7
2007-08-30 08:00:32 51°19.702 2°59.098 67.3 10 66 7.7
2007-08-30 08:01:32 51°19.759 2°59.35 71.9 10.1 71 7.8
2007-08-30 08:02:32 51°19.824 2°59.596 67.5 10 66 7.7
2007-08-30 08:03:32 51°19.878 2°59.849 72.4 10.2 72 7.7
2007-08-30 08:04:31 51°19.938 3°0.093 70.9 10.1 70 7.6
2007-08-30 08:05:31 51°20.001 3°0.343 67.1 10.2 67 7.6
2007-08-30 08:06:32 51°20.055 3°0.605 73.9 10.2 70 7.6
2007-08-30 08:07:32 51°20.112 3°0.858 71.2 10.2 72 7.6
2007-08-30 08:08:32 51°20.162 3°1.116 71.2 10 68 7.5
2007-08-30 08:09:32 51°20.226 3°1.362 70.1 10 69 7.6
2007-08-30 08:10:31 51°20.28 3°1.608 72.7 10 74 7.6
2007-08-30 08:11:32 51°20.333 3°1.865 69.6 10.1 67 7.6
2007-08-30 08:12:32 51°20.388 3°2.118 73.4 10.2 75 7.8
2007-08-30 08:13:32 51°20.44 3°2.374 70.1 10.2 71 7.6
2007-08-30 08:14:32 51°20.493 3°2.631 71.8 10.2 71 7.8
2007-08-30 08:15:32 51°20.546 3°2.888 73.3 10.2 75 7.6
2007-08-30 08:16:32 51°20.597 3°3.146 72.2 10.2 73 7.7
2007-08-30 08:17:32 51°20.65 3°3.405 70.5 10.3 72 7.8
2007-08-30 08:18:32 51°20.7 3°3.668 70.4 10.4 74 7.9
2007-08-30 08:19:32 51°20.756 3°3.931 72.2 10.4 74 7.9
2007-08-30 08:20:32 51°20.805 3°4.198 69.2 10.5 69 7.7
2007-08-30 08:21:31 51°20.855 3°4.462 70.5 10.4 71 7.6
2007-08-30 08:22:32 51°20.909 3°4.733 76.8 10.6 81 8
2007-08-30 08:23:32 51°20.945 3°5.009 75 10.5 74 7.9
2007-08-30 08:24:32 51°20.988 3°5.281 74.7 10.6 74 7.9
2007-08-30 08:25:32 51°21.027 3°5.56 78.6 10.8 78 7.9
2007-08-30 08:26:32 51°21.077 3°5.832 70.6 10.6 70 8
2007-08-30 08:27:32 51°21.131 3°6.101 75.2 10.6 74 8
2007-08-30 08:28:31 51°21.187 3°6.364 70.2 10.7 71 8.2
2007-08-30 08:29:32 51°21.24 3°6.639 74.7 10.7 77 8.2
2007-08-30 08:30:32 51°21.255 3°6.924 85.8 10.7 87 8.2
2007-08-30 08:31:32 51°21.278 3°7.205 79.8 10.6 79 8
2007-08-30 08:32:32 51°21.342 3°7.463 62.1 10.5 57 8.3
2007-08-30 08:33:32 51°21.433 3°7.702 62.3 10.6 60 8.6
2007-08-30 08:34:32 51°21.519 3°7.949 61.8 10.6 60 8.8
2007-08-30 08:35:32 51°21.607 3°8.195 62.5 10.7 61 9.1
2007-08-30 08:36:32 51°21.653 3°8.47 77.9 10.8 79 9.3
2007-08-30 08:37:32 51°21.694 3°8.749 82 10.8 84 9.5
2007-08-30 08:38:32 51°21.692 3°9.035 89.3 9.9 92 9.7
2007-08-30 08:39:32 51°21.694 3°9.199 72.8 3.7 75 10.3
2007-08-30 08:40:32 51°21.738 3°9.217 357.8 3.5 330 10.9
2007-08-30 08:41:32 51°21.757 3°9.105 271.9 5.3 257 10.4
2007-08-30 08:42:32 51°21.702 3°9.016 198.5 4.3 207 10
2007-08-30 08:43:32 51°21.642 3°8.956 222.1 4 222 9.8
2007-08-30 08:44:32 51°21.604 3°8.876 251.6 3.9 241 9.5
2007-08-30 08:45:32 51°21.586 3°8.762 279.9 4.2 263 9.4
2007-08-30 08:46:31 51°21.574 3°8.657 270.7 4.1 256 9.3
2007-08-30 08:47:32 51°21.556 3°8.553 274.3 3.9 259 9.2
2007-08-30 08:48:32 51°21.55 3°8.454 288.6 3.7 267 9.2
2007-08-30 08:49:32 51°21.544 3°8.354 280.2 3.8 262 9.2
2007-08-30 08:50:32 51°21.53 3°8.252 271 4 256 9.3
2007-08-30 08:51:32 51°21.525 3°8.153 296.1 3.5 274 9.2
2007-08-30 08:52:32 51°21.54 3°8.061 314.7 4 293 9.4
2007-08-30 08:53:31 51°21.57 3°7.954 313.2 4.5 293 9.6
2007-08-30 08:54:32 51°21.595 3°7.864 324.6 3 296 9.7
2007-08-30 08:55:32 51°21.616 3°7.805 337.7 2.5 305 9.8
2007-08-30 08:56:32 51°21.649 3°7.753 349.2 3 322 10
2007-08-30 08:57:32 51°21.686 3°7.71 353.9 2.7 326 10.2
2007-08-30 08:58:32 51°21.722 3°7.685 11.6 2.2 347 10.3
2007-08-30 08:59:32 51°21.757 3°7.682 27.5 2.1 9 10.4
2007-08-30 09:00:32 51°21.787 3°7.701 39.8 1.7 27 10.5
2007-08-30 09:01:32 51°21.807 3°7.713 38.1 1.3 18 10.6
2007-08-30 09:02:32 51°21.832 3°7.729 37.5 1.8 21 10.6
2007-08-30 09:03:32 51°21.858 3°7.744 37.1 1.6 23 10.7
2007-08-30 09:04:32 51°21.882 3°7.76 38.3 1.6 21 10.7
2007-08-30 09:05:32 51°21.908 3°7.781 40.4 1.7 30 10.8
2007-08-30 09:06:32 51°21.931 3°7.804 41.2 1.5 33 10.9
2007-08-30 09:07:32 51°21.951 3°7.828 43.4 1.5 37 11
2007-08-30 09:08:32 51°21.974 3°7.851 41.2 1.7 33 11.1
2007-08-30 09:09:32 51°21.996 3°7.882 52.4 1.7 45 11.1
2007-08-30 09:10:32 51°22.01 3°7.92 57.3 1.6 56 11.2
2007-08-30 09:11:32 51°22.023 3°7.957 58.8 1.6 64 11.2
2007-08-30 09:12:32 51°22.035 3°7.992 61.1 1.4 62 11.3
2007-08-30 09:13:32 51°22.045 3°8.023 59.5 1.4 65 11.2
2007-08-30 09:14:32 51°22.059 3°8.06 58.1 1.6 59 11.4
2007-08-30 09:15:32 51°22.073 3°8.097 57.8 1.6 61 11.3
2007-08-30 09:16:32 51°22.083 3°8.134 58 1.5 67 11.5
2007-08-30 09:17:32 51°22.084 3°8.165 78.9 1.2 109 11.4
2007-08-30 09:18:32 51°22.067 3°8.192 112.3 1.8 153 11.5
2007-08-30 09:19:32 51°22.034 3°8.204 152.1 2.3 180 11.2
2007-08-30 09:20:32 51°22 3°8.188 178.3 2.1 205 11.3
2007-08-30 09:21:32 51°21.972 3°8.162 187.8 1.8 213 11.1
2007-08-30 09:22:32 51°21.948 3°8.139 189.2 1.6 211 11.1
2007-08-30 09:23:32 51°21.927 3°8.116 190.8 1.6 217 11.1
2007-08-30 09:24:32 51°21.907 3°8.093 197 1.4 217 11
2007-08-30 09:25:32 51°21.886 3°8.071 202.5 2.3 211 11
2007-08-30 09:26:32 51°21.85 3°7.984 265.2 5.1 259 10.8
2007-08-30 09:27:32 51°21.897 3°7.895 8.1 4.8 2 11
2007-08-30 09:28:32 51°21.913 3°8.017 95.1 7.3 101 11.1
2007-08-30 09:29:32 51°21.926 3°8.276 75.4 10.6 76 11
2007-08-30 09:30:32 51°21.974 3°8.554 75.2 11 74 11.1
2007-08-30 09:31:32 51°22.019 3°8.84 74.7 11 75 11.4
2007-08-30 09:32:32 51°22.063 3°9.127 75.4 11.1 76 11.8
2007-08-30 09:33:32 51°22.135 3°9.286 36.2 6.2 34 12.3
2007-08-30 09:34:32 51°22.173 3°9.427 74 5.9 76 12.5
2007-08-30 09:35:32 51°22.208 3°9.618 71.7 9.9 72 12.7
2007-08-30 09:36:32 51°22.264 3°9.902 72.9 11.5 71 13.1
2007-08-30 09:37:32 51°22.32 3°10.195 72.5 11.5 73 13.6
2007-08-30 09:38:32 51°22.381 3°10.489 72.3 11.7 70 17.6
2007-08-30 09:39:32 51°22.445 3°10.787 72.4 11.8 69 15.6
2007-08-30 09:40:32 51°22.507 3°11.083 73.2 11.8 72 14.9
2007-08-30 09:41:32 51°22.569 3°11.379 74 11.7 71 14.6
2007-08-30 09:42:32 51°22.634 3°11.67 73.7 11.6 70 13.9
2007-08-30 09:43:32 51°22.699 3°11.96 74 11.7 71 13.4
2007-08-30 09:44:32 51°22.769 3°12.248 72.5 11.6 69 12.8
2007-08-30 09:45:32 51°22.839 3°12.537 71.8 11.5 68 12.4
2007-08-30 09:46:32 51°22.908 3°12.827 73.3 11.7 68 11.6
2007-08-30 09:47:32 51°22.976 3°13.114 73 11.6 68 10.9
2007-08-30 09:48:32 51°23.048 3°13.4 73.3 11.5 68 10.3
2007-08-30 09:49:32 51°23.121 3°13.687 72.3 11.6 68 10
2007-08-30 09:50:32 51°23.191 3°13.976 72.7 11.6 69 9.5
2007-08-30 09:51:32 51°23.262 3°14.263 73.6 11.6 69 9.2
2007-08-30 09:52:32 51°23.391 3°14.471 32.1 11.4 20 9.7
2007-08-30 09:53:32 51°23.587 3°14.447 356.8 12.2 348 11.2
2007-08-30 09:54:32 51°23.789 3°14.389 -999 12.2 352 10.5
2007-08-30 09:55:32 51°23.991 3°14.363 3.7 12.2 357 10.4
2007-08-30 09:56:32 51°24.196 3°14.346 4.1 12.4 357 13.2
2007-08-30 09:57:32 51°24.403 3°14.337 4.9 12.5 359 16.8
2007-08-30 09:58:32 51°24.612 3°14.337 6 12.5 -999 18.9
2007-08-30 09:59:32 51°24.823 3°14.342 4 12.4 359 16.4
2007-08-30 10:00:32 51°25.026 3°14.337 2.8 11.9 -999 14
2007-08-30 10:01:32 51°25.223 3°14.314 358.4 11.8 355 11.9
2007-08-30 10:02:32 51°25.417 3°14.289 358.3 11.5 355 9.5
2007-08-30 10:03:32 51°25.558 3°14.131 303.4 11.1 290 8.6
2007-08-30 10:04:32 51°25.508 3°13.833 253.4 12.4 249 9.2
2007-08-30 10:05:32 51°25.457 3°13.511 263.8 12.4 257 9.5
2007-08-30 10:06:32 51°25.401 3°13.191 263.5 12.5 257 9.7
2007-08-30 10:07:32 51°25.362 3°12.866 264.3 12.5 257 9.9
2007-08-30 10:08:32 51°25.323 3°12.542 265.6 12.4 259 10
2007-08-30 10:09:32 51°25.276 3°12.218 264.7 12.5 259 10
2007-08-30 10:10:32 51°25.228 3°11.895 264.3 12.5 258 9.9
2007-08-30 10:11:32 51°25.183 3°11.571 263.7 12.5 257 9.7
2007-08-30 10:12:32 51°25.136 3°11.248 265.2 12.5 257 9.6
2007-08-30 10:13:32 51°25.089 3°10.925 266.3 12.4 258 9.1
2007-08-30 10:14:32 51°25.041 3°10.605 263.4 12.4 257 8.7
2007-08-30 10:15:32 51°25 3°10.282 265.9 12.4 259 8.4
2007-08-30 10:16:32 51°24.951 3°9.961 261.8 12.4 256 8.2
2007-08-30 10:17:32 51°24.901 3°9.639 262.6 12.5 255 8.1
2007-08-30 10:18:32 51°24.855 3°9.316 266.4 12.5 259 8.5
2007-08-30 10:19:32 51°24.813 3°8.99 262.6 12.6 256 8.8
2007-08-30 10:20:32 51°24.767 3°8.663 266 12.6 259 9.1
2007-08-30 10:21:32 51°24.724 3°8.335 264.5 12.7 258 9.7
2007-08-30 10:22:32 51°24.682 3°8.004 264.9 12.7 259 10.2
2007-08-30 10:23:32 51°24.643 3°7.673 271.1 12.5 267 10.6
2007-08-30 10:24:32 51°24.704 3°7.371 307.5 11.8 304 10.9
2007-08-30 10:25:32 51°24.843 3°7.149 325.9 11.7 318 10.5
2007-08-30 10:26:32 51°24.999 3°6.977 342.8 11.3 337 10
2007-08-30 10:27:32 51°25.179 3°6.927 359.7 11 354 9.7
2007-08-30 10:28:32 51°25.363 3°6.899 4.8 11.1 5 9.9
2007-08-30 10:29:32 51°25.52 3°7.039 40 11.1 40 10
2007-08-30 10:30:32 51°25.665 3°7.225 38 11.3 38 9.8
2007-08-30 10:31:32 51°25.815 3°7.401 37.1 11.1 39 9.9
2007-08-30 10:32:32 51°25.925 3°7.639 52.2 11.1 52 9.4
2007-08-30 10:33:32 51°26.047 3°7.858 46.7 11.1 47 9.2
2007-08-30 10:34:32 51°26.171 3°8.073 47.2 11.1 49 9.3
2007-08-30 10:35:32 51°26.298 3°8.287 46.1 11.2 48 9.8
2007-08-30 10:36:32 51°26.426 3°8.502 44.9 11.1 47 10.5
2007-08-30 10:37:32 51°26.554 3°8.721 45.7 11.3 47 11
2007-08-30 10:38:32 51°26.685 3°8.942 44.3 11.5 47 11
2007-08-30 10:39:32 51°26.815 3°9.163 44.2 11.3 47 10.6
2007-08-30 10:40:32 51°26.946 3°9.382 43.8 11.5 46 10.2
2007-08-30 10:41:32 51°27.077 3°9.604 44.7 11.5 47 10.7
2007-08-30 10:42:32 51°27.208 3°9.827 44.9 11.4 46 10.8
2007-08-30 10:43:32 51°27.342 3°10.048 44.2 11.7 46 10.8
2007-08-30 10:44:32 51°27.471 3°10.278 46.2 11.6 49 10.8
2007-08-30 10:45:32 51°27.6 3°10.504 45 11.5 47 10.8
2007-08-30 10:46:32 51°27.726 3°10.732 45.6 11.6 48 10.6
2007-08-30 10:47:32 51°27.853 3°10.963 44.2 11.5 46 10.3
2007-08-30 10:48:32 51°27.983 3°11.191 46 11.6 50 10.2
2007-08-30 10:49:32 51°28.108 3°11.425 46 11.6 51 10.1
2007-08-30 10:50:32 51°28.237 3°11.654 46.4 11.5 49 9.9
2007-08-30 10:51:32 51°28.371 3°11.869 33.8 11.1 34 9.9
2007-08-30 10:52:32 51°28.546 3°11.923 359.3 11 358 10.1
2007-08-30 10:53:32 51°28.73 3°11.897 357.2 11 355 10.4
2007-08-30 10:54:32 51°28.91 3°11.856 345.8 10.9 337 10.7
2007-08-30 10:55:32 51°29.064 3°11.687 327.4 11.4 321 11.8
2007-08-30 10:56:32 51°29.207 3°11.489 326.7 11.5 320 12.9
2007-08-30 10:57:32 51°29.347 3°11.278 323.7 11.5 317 13.5
2007-08-30 10:58:32 51°29.485 3°11.063 320 11.7 314 13.8
2007-08-30 10:59:32 51°29.618 3°10.833 320.8 11.8 312 14.7
2007-08-30 11:00:32 51°29.751 3°10.603 320.3 11.8 313 15.9
2007-08-30 11:01:32 51°29.883 3°10.369 320.1 11.8 312 16.6
2007-08-30 11:02:32 51°30.018 3°10.138 321.5 11.9 313 17.1
2007-08-30 11:03:32 51°30.153 3°9.907 320.9 11.8 313 17.4
2007-08-30 11:04:31 51°30.285 3°9.677 321.2 12 313 17.7
2007-08-30 11:05:31 51°30.42 3°9.446 321.3 11.8 313 18.4
2007-08-30 11:06:32 51°30.556 3°9.205 318.9 12 311 19.4
2007-08-30 11:07:32 51°30.687 3°8.963 318.8 12.1 312 19.9
2007-08-30 11:08:32 51°30.82 3°8.721 319.3 12 312 22.6
2007-08-30 11:09:32 51°30.952 3°8.477 319.1 12.2 311 22.5
2007-08-30 11:10:32 51°31.084 3°8.232 319.1 12.2 310 20.9
2007-08-30 11:11:32 51°31.214 3°7.983 318.3 12.2 309 22.5
2007-08-30 11:12:32 51°31.347 3°7.739 319.8 12.2 312 22.8
2007-08-30 11:13:32 51°31.481 3°7.496 319.2 12.1 311 22.5
2007-08-30 11:14:32 51°31.614 3°7.253 319.3 12.1 311 23.5
2007-08-30 11:15:32 51°31.757 3°7.032 328 12 320 24.4
2007-08-30 11:16:32 51°31.909 3°6.822 327.3 12.1 317 31
2007-08-30 11:17:32 51°32.06 3°6.612 327.7 12 319 31.7
2007-08-30 11:18:32 51°32.205 3°6.391 320.6 12.1 312 31
2007-08-30 11:19:32 51°32.338 3°6.146 318.2 12.2 309 30.9
2007-08-30 11:20:32 51°32.469 3°5.898 318.3 12.2 310 29.7
2007-08-30 11:21:32 51°32.601 3°5.651 318.2 12.1 311 28.9
2007-08-30 11:22:32 51°32.734 3°5.408 318.1 12.1 312 30.3
2007-08-30 11:23:32 51°32.869 3°5.166 317.5 12.3 311 32.4
2007-08-30 11:24:32 51°32.998 3°4.914 316 12.2 310 30.9
2007-08-30 11:25:32 51°33.129 3°4.664 316 12.2 310 29.3
2007-08-30 11:26:32 51°33.259 3°4.407 316.7 12.3 309 24
2007-08-30 11:27:32 51°33.387 3°4.154 316.5 12.2 309 21.1
2007-08-30 11:28:32 51°33.516 3°3.904 316.2 12.2 309 20.3
2007-08-30 11:29:32 51°33.641 3°3.649 316.2 12.1 309 20.4
2007-08-30 11:30:32 51°33.768 3°3.393 317.1 12.3 309 25.1
2007-08-30 11:31:32 51°33.894 3°3.135 315.7 12.4 308 30.1
2007-08-30 11:32:32 51°34.022 3°2.874 316.5 12.5 309 33.5
2007-08-30 11:33:32 51°34.152 3°2.613 316.2 12.5 308 33
2007-08-30 11:34:32 51°34.28 3°2.353 316.2 12.3 308 29.1
2007-08-30 11:35:32 51°34.404 3°2.094 316.4 12.1 307 23.8
2007-08-30 11:36:32 51°34.527 3°1.84 317.1 12 309 20.6
2007-08-30 11:37:32 51°34.649 3°1.587 316.5 11.9 307 17
2007-08-30 11:38:32 51°34.77 3°1.335 317.3 11.8 310 17.6
2007-08-30 11:39:32 51°34.892 3°1.082 315.6 12 307 19.5
2007-08-30 11:40:32 51°35.016 3°0.827 316.5 12.1 308 23.7
2007-08-30 11:41:32 51°35.142 3°0.57 316.1 12.3 308 24.3
2007-08-30 11:42:32 51°35.265 3°0.306 309.7 12.4 297 27.7
2007-08-30 11:43:32 51°35.294 2°59.973 277.6 13 270 29.3
2007-08-30 11:44:32 51°35.292 2°59.625 277.2 12.9 268 30.6
2007-08-30 11:45:32 51°35.237 2°59.284 260.5 13.4 252 30.7
2007-08-30 11:46:32 51°35.171 2°58.947 254.3 13.2 247 31.1
2007-08-30 11:47:32 51°35.073 2°58.627 250.4 13.3 244 31.7
2007-08-30 11:48:32 51°34.979 2°58.305 251.3 13.4 247 31.2
2007-08-30 11:49:32 51°34.869 2°57.995 244.8 13.4 239 31.4
2007-08-30 11:50:32 51°34.757 2°57.689 243.7 13.3 239 31.4
2007-08-30 11:51:32 51°34.643 2°57.383 245.3 13.4 239 30.9
2007-08-30 11:52:32 51°34.531 2°57.078 246.3 13.1 240 31
2007-08-30 11:53:32 51°34.42 2°56.772 245.8 13.5 238 30.2
2007-08-30 11:54:32 51°34.311 2°56.467 245.5 13.1 240 31
2007-08-30 11:55:32 51°34.199 2°56.164 245.4 13.3 239 30.8
2007-08-30 11:56:32 51°34.091 2°55.858 246.6 13.3 240 31.3
2007-08-30 11:57:32 51°33.981 2°55.556 246.4 13.2 238 31
2007-08-30 11:58:32 51°33.871 2°55.25 246.2 13.2 240 30.9
2007-08-30 11:59:32 51°33.764 2°54.945 246.2 13 242 29.8
2007-08-30 12:00:32 51°33.654 2°54.645 245.3 13.1 238 26.5
2007-08-30 12:01:32 51°33.543 2°54.345 244.8 13 241 29
2007-08-30 12:02:32 51°33.433 2°54.048 245 12.9 241 27.9
2007-08-30 12:03:32 51°33.324 2°53.752 245 12.9 239 28.6
2007-08-30 12:04:32 51°33.215 2°53.454 245.4 12.8 239 30
2007-08-30 12:05:32 51°33.106 2°53.157 246.6 12.7 242 29.5
2007-08-30 12:06:32 51°32.997 2°52.862 244.8 12.8 237 29.2
2007-08-30 12:07:32 51°32.889 2°52.567 245.6 12.9 241 29.6
2007-08-30 12:08:32 51°32.782 2°52.27 245.1 12.8 241 27.5
2007-08-30 12:09:32 51°32.674 2°51.976 245.8 12.8 239 30.9
2007-08-30 12:10:32 51°32.569 2°51.682 245.8 12.7 242 33
2007-08-30 12:11:32 51°32.457 2°51.392 243.8 12.8 238 32.1
2007-08-30 12:12:32 51°32.348 2°51.104 244.5 12.6 238 32.9
2007-08-30 12:13:32 51°32.238 2°50.814 245.3 12.6 241 32.5
2007-08-30 12:14:32 51°32.128 2°50.527 243.8 12.6 237 31.3
2007-08-30 12:15:32 51°32.017 2°50.241 241.7 12.6 235 33.1
2007-08-30 12:16:32 51°31.903 2°49.961 242.3 12.5 237 29.1
2007-08-30 12:17:32 51°31.79 2°49.681 242.4 12.5 237 28.5
2007-08-30 12:18:32 51°31.676 2°49.402 241.9 12.7 237 31.9
2007-08-30 12:19:32 51°31.563 2°49.124 242.1 12.5 237 30.9
2007-08-30 12:20:32 51°31.45 2°48.845 242.4 12.4 238 31
2007-08-30 12:21:32 51°31.339 2°48.566 242.6 12.4 237 32.2
2007-08-30 12:22:32 51°31.227 2°48.291 242.1 12.3 235 31.7
2007-08-30 12:23:32 51°31.056 2°48.109 211.7 12.5 204 31.3
2007-08-30 12:24:32 51°30.849 2°48.046 195.2 12.9 188 30.1
2007-08-30 12:25:32 51°30.635 2°48.068 172.7 13.2 167 30.8
2007-08-30 12:26:32 51°30.434 2°48.212 161.7 13.4 154 26.5
2007-08-30 12:27:32 51°30.233 2°48.355 163.2 13.3 157 26.4
2007-08-30 12:28:32 51°30.056 2°48.561 133.3 13.4 127 24.6
2007-08-30 12:29:32 51°30.016 2°48.911 89 14 85 24.8
2007-08-30 12:30:32 51°30.074 2°49.267 67.3 13.9 65 25.1
2007-08-30 12:31:32 51°30.18 2°49.598 65.3 14 65 21.3
2007-08-30 12:32:32 51°30.282 2°49.936 67.7 14.1 65 25.7
2007-08-30 12:33:32 51°30.385 2°50.27 64.4 13.9 64 22.1
2007-08-30 12:34:32 51°30.489 2°50.603 65.6 14 63 24.5
2007-08-30 12:35:32 51°30.589 2°50.94 65 13.9 65 23.8
2007-08-30 12:36:32 51°30.7 2°51.267 63.1 13.9 60 21.5
2007-08-30 12:37:32 51°30.81 2°51.597 62.9 14.1 64 20.5
2007-08-30 12:38:32 51°30.915 2°51.93 64.2 13.8 66 22.1
2007-08-30 12:39:32 51°31.019 2°52.266 64.9 14.3 64 23.3
2007-08-30 12:40:32 51°31.126 2°52.602 63.1 14.1 64 22.7
2007-08-30 12:41:32 51°31.231 2°52.935 63.4 14 63 23.2
2007-08-30 12:42:32 51°31.332 2°53.272 65 14 67 22.7
2007-08-30 12:43:32 51°31.434 2°53.612 63.5 14 63 22.6
2007-08-30 12:44:32 51°31.538 2°53.947 63.6 14.1 64 22.7
2007-08-30 12:45:32 51°31.64 2°54.289 65.1 14.2 64 22.6
2007-08-30 12:46:32 51°31.742 2°54.629 64.1 14.1 65 22.7
2007-08-30 12:47:32 51°31.844 2°54.97 65.3 14.2 65 20.4
2007-08-30 12:48:32 51°31.948 2°55.309 64.3 14.2 64 23.3
2007-08-30 12:49:32 51°32.052 2°55.65 64.8 14.2 63 23.1
2007-08-30 12:50:32 51°32.136 2°56 82.3 14.1 85 23
2007-08-30 12:51:32 51°32.093 2°56.363 115.4 13.7 112 20.3
2007-08-30 12:52:32 51°31.984 2°56.692 122.1 14 119 20.1
2007-08-30 12:53:32 51°31.875 2°57.023 122.8 14.1 118 17.9
2007-08-30 12:54:32 51°31.759 2°57.351 124.1 14 119 29
2007-08-30 12:55:32 51°31.64 2°57.676 124.9 13.9 120 37.4
2007-08-30 12:56:32 51°31.53 2°58.005 125.7 13.9 120 35.5
2007-08-30 12:57:32 51°31.403 2°58.311 131.2 13.8 123 31.9
2007-08-30 12:58:32 51°31.273 2°58.623 129.5 14 121 30.7
2007-08-30 12:59:32 51°31.149 2°58.938 129.9 14 124 30
2007-08-30 13:00:32 51°31.022 2°59.255 129.1 14.2 124 29.7
2007-08-30 13:01:32 51°30.891 2°59.57 129.1 14.2 123 29.9
2007-08-30 13:02:32 51°30.763 2°59.88 129.9 14 125 28.8
2007-08-30 13:03:32 51°30.628 3°0.181 131.9 13.7 125 28.6
2007-08-30 13:04:32 51°30.498 3°0.483 133.1 13.6 127 29.6
2007-08-30 13:05:32 51°30.368 3°0.781 129.8 13.3 124 30.2
2007-08-30 13:06:32 51°30.24 3°1.084 131.6 13.9 121 30.3
2007-08-30 13:07:32 51°30.114 3°1.388 132.3 13.7 126 31
2007-08-30 13:08:32 51°29.984 3°1.697 131.1 14.2 123 30.3
2007-08-30 13:09:32 51°29.852 3°2.004 132 14 128 28.3
2007-08-30 13:10:32 51°29.723 3°2.311 131.3 14.1 125 26.6
2007-08-30 13:11:32 51°29.588 3°2.621 131.4 14.3 124 25.8
2007-08-30 13:12:32 51°29.454 3°2.925 132.8 13.9 129 25.2
2007-08-30 13:13:32 51°29.323 3°3.23 131.2 13.9 126 25
2007-08-30 13:14:32 51°29.187 3°3.525 141.1 13.4 133 25.9
2007-08-30 13:15:32 51°29.014 3°3.746 149.1 13.3 140 26.2
2007-08-30 13:16:32 51°28.839 3°3.96 151.1 13 146 25.7
2007-08-30 13:17:32 51°28.64 3°4.093 166.3 12.6 159 24.9
2007-08-30 13:18:32 51°28.441 3°4.213 169 12.5 162 23.6
2007-08-30 13:19:32 51°28.24 3°4.325 169.6 12.7 161 21.9
2007-08-30 13:20:32 51°28.039 3°4.431 171.4 12.9 161 19.7
2007-08-30 13:21:32 51°27.836 3°4.536 174.9 12.5 170 17.8
2007-08-30 13:22:32 51°27.63 3°4.561 185.5 12.3 177 16.4
2007-08-30 13:23:32 51°27.426 3°4.585 185 12.2 175 15.5
2007-08-30 13:24:32 51°27.225 3°4.61 185.6 11.9 176 15.2
2007-08-30 13:25:32 51°27.019 3°4.627 184.5 12.2 178 16.6
2007-08-30 13:26:32 51°26.819 3°4.653 182.3 12.3 174 16.2
2007-08-30 13:27:32 51°26.619 3°4.657 191.4 12 182 15.3
2007-08-30 13:28:32 51°26.421 3°4.634 191.6 11.7 185 14.5
2007-08-30 13:29:32 51°26.225 3°4.612 190.7 11.7 181 14.1
2007-08-30 13:30:32 51°26.03 3°4.59 193.7 11.6 184 14.3
2007-08-30 13:31:32 51°25.836 3°4.577 190.9 11.8 181 14.2
2007-08-30 13:32:32 51°25.641 3°4.569 189.4 11.6 179 14.5
2007-08-30 13:33:32 51°25.445 3°4.56 190.8 11.7 181 14.8
2007-08-30 13:34:32 51°25.251 3°4.558 191.6 11.7 180 15.5
2007-08-30 13:35:32 51°25.054 3°4.554 191.3 11.8 182 16.3
2007-08-30 13:36:32 51°24.855 3°4.551 191.1 11.9 179 17.1
2007-08-30 13:37:32 51°24.653 3°4.546 191.7 11.9 181 16.6
2007-08-30 13:38:32 51°24.454 3°4.545 191 12.4 180 19.6
2007-08-30 13:39:32 51°24.249 3°4.536 191.3 12.5 182 21.9
2007-08-30 13:40:32 51°24.043 3°4.525 191.3 12.3 181 17.9
2007-08-30 13:41:32 51°23.842 3°4.52 191.3 12.1 181 16
2007-08-30 13:42:33 51°23.639 3°4.505 196.4 11.7 191 15.4
2007-08-30 13:43:32 51°23.465 3°4.404 214.1 11.5 205 15.6
2007-08-30 13:44:32 51°23.317 3°4.231 232.4 11 227 15.5
2007-08-30 13:45:32 51°23.191 3°4.018 229.3 11.2 222 12.1
2007-08-30 13:46:32 51°23.061 3°3.809 230.9 11.2 224 14.8
2007-08-30 13:47:32 51°22.932 3°3.596 232.3 11.2 226 14.3
2007-08-30 13:48:32 51°22.81 3°3.375 234 11.1 227 14.9
2007-08-30 13:49:32 51°22.689 3°3.153 233.1 10.9 230 12.3
2007-08-30 13:50:32 51°22.569 3°2.934 233.3 11.1 229 13.4
2007-08-30 13:51:32 51°22.447 3°2.715 232.9 11 227 14
2007-08-30 13:52:32 51°22.334 3°2.488 236.8 11 232 14.1
2007-08-30 13:53:32 51°22.22 3°2.257 235.8 11.1 229 14.2
2007-08-30 13:54:32 51°22.108 3°2.026 236.6 11.1 232 14.3
2007-08-30 13:55:32 51°21.996 3°1.795 236.2 11.1 232 14.3
2007-08-30 13:56:32 51°21.884 3°1.566 236.6 10.9 232 14.4
2007-08-30 13:57:32 51°21.777 3°1.329 238.9 11 237 14.4
2007-08-30 13:58:32 51°21.676 3°1.088 239.9 11.1 236 14.4
2007-08-30 13:59:32 51°21.579 3°0.841 240.7 11 238 14.4
2007-08-30 14:00:32 51°21.481 3°0.598 241.1 10.8 237 14.3
2007-08-30 14:01:32 51°21.385 3°0.355 240.6 10.9 237 14.2
2007-08-30 14:02:32 51°21.289 3°0.114 240.2 10.8 237 14.4
2007-08-30 14:03:33 51°21.19 2°59.87 240.8 10.8 239 14.1
2007-08-30 14:04:32 51°21.093 2°59.631 240 10.9 238 14.4
2007-08-30 14:05:33 51°20.995 2°59.384 240.9 10.7 238 14.4
2007-08-30 14:06:32 51°20.9 2°59.147 240.7 10.8 236 14.4
2007-08-30 14:07:32 51°20.804 2°58.903 240.4 10.8 238 14.3
2007-08-30 14:08:32 51°20.708 2°58.657 240.3 10.9 237 14.4
2007-08-30 14:09:32 51°20.607 2°58.416 238.2 11 235 14.5
2007-08-30 14:10:32 51°20.505 2°58.174 237.9 11.1 237 14.5
2007-08-30 14:11:32 51°20.404 2°57.93 238.8 10.9 235 14.5
2007-08-30 14:12:33 51°20.302 2°57.683 238.6 10.9 236 14.4
2007-08-30 14:13:32 51°20.203 2°57.444 238.6 11 238 14.4
2007-08-30 14:14:33 51°20.1 2°57.196 238.2 11.1 237 14.4
2007-08-30 14:15:32 51°20 2°56.955 237.6 11.1 236 14.5
2007-08-30 14:16:32 51°19.898 2°56.711 237.2 11.2 235 14.3
2007-08-30 14:17:32 51°19.795 2°56.466 237.2 11.2 235 14.3
2007-08-30 14:18:32 51°19.69 2°56.22 237.4 11.2 236 14.4
2007-08-30 14:19:33 51°19.583 2°55.969 236.9 11.3 232 14.4
2007-08-30 14:20:32 51°19.48 2°55.723 237.6 11.3 238 14.4
2007-08-30 14:21:33 51°19.373 2°55.469 237.5 11.4 236 14.6
2007-08-30 14:22:32 51°19.268 2°55.225 236 11.3 234 14.6
2007-08-30 14:23:33 51°19.16 2°54.972 237.7 11.4 235 14.4
2007-08-30 14:24:32 51°19.056 2°54.727 236.6 11.4 238 14.3
2007-08-30 14:25:33 51°18.949 2°54.473 236.9 11.4 234 14.3
2007-08-30 14:26:32 51°18.846 2°54.228 237 11.3 234 14.2
2007-08-30 14:27:32 51°18.742 2°53.978 237.8 11.3 241 14.2
2007-08-30 14:28:32 51°18.638 2°53.727 237.6 11.3 237 14.1
2007-08-30 14:29:32 51°18.536 2°53.475 237.7 11.2 237 14.1
2007-08-30 14:30:33 51°18.432 2°53.218 238.7 11.4 243 14.1
2007-08-30 14:31:32 51°18.363 2°52.945 242.7 11.2 242 14
2007-08-30 14:32:33 51°18.244 2°52.711 224.1 11.3 219 13.8
2007-08-30 14:33:32 51°18.069 2°52.623 191.6 11.5 184 13.7
2007-08-30 14:34:32 51°17.923 2°52.664 172.3 6.8 157 13.2
2007-08-30 14:35:33 51°17.831 2°52.719 183.2 5 171 13.3
2007-08-30 14:36:33 51°17.712 2°52.708 193.1 9.5 187 13
2007-08-30 14:37:33 51°17.531 2°52.679 192.8 11.2 186 13
2007-08-30 14:38:32 51°17.343 2°52.677 184.5 11.4 181 12.7
2007-08-30 14:39:33 51°17.144 2°52.714 178.2 12.1 172 12.4
2007-08-30 14:40:32 51°16.95 2°52.748 180 11.9 174 12.3
2007-08-30 14:41:32 51°16.755 2°52.785 179.7 11.7 173 12.8
2007-08-30 14:42:33 51°16.56 2°52.866 168.1 12.1 157 14.3
2007-08-30 14:43:32 51°16.375 2°52.991 164.2 12.3 154 14.6
2007-08-30 14:44:32 51°16.191 2°53.137 162 12.6 154 14.4
2007-08-30 14:45:32 51°16.004 2°53.277 162.6 12.5 154 14.3
2007-08-30 14:46:33 51°15.815 2°53.422 162.6 12 156 13.9
2007-08-30 14:47:32 51°15.634 2°53.568 161 12.4 151 13.4
2007-08-30 14:48:32 51°15.45 2°53.722 159.3 12.5 151 12.9
2007-08-30 14:49:33 51°15.265 2°53.873 162.5 12.2 157 12.3
2007-08-30 14:50:33 51°15.081 2°54.023 160.4 12.3 152 11.6
2007-08-30 14:51:33 51°14.911 2°54.213 150.9 12.6 141 11.7
2007-08-30 14:52:33 51°14.748 2°54.426 148.4 12.6 140 12.4
2007-08-30 14:53:32 51°14.592 2°54.642 142.5 12.6 134 12.5
2007-08-30 14:54:32 51°14.453 2°54.895 136.5 12.2 128 13.5
2007-08-30 14:55:33 51°14.335 2°55.132 131.8 10 130 13.4
2007-08-30 14:56:33 51°14.232 2°55.308 139.3 8.9 139 13.3
2007-08-30 14:57:35 51°14.119 2°55.419 156.3 7 155 13.3
2007-08-30 14:58:34 51°14.026 2°55.488 157.4 5.9 155 13.2
2007-08-30 14:59:33 51°13.933 2°55.556 157.8 7.3 157 14
2007-08-30 15:00:33 51°13.816 2°55.642 154.4 7.2 151 14.1
2007-08-30 15:01:36 51°13.728 2°55.763 133.2 6.6 133 -999
2007-08-30 15:02:36 51°13.673 2°55.88 126.6 4.6 125 -999
2007-08-30 15:03:36 51°13.634 2°55.973 120.3 4 120 -999
2007-08-30 15:04:36 51°13.612 2°56.055 109 2.8 109 -999
2007-08-30 15:05:36 51°13.604 2°56.093 115.5 0.7 113 -999